ADDS METAR Data INFO
IDs: Format: Raw Decoded Include TAF

Data at: 1317 UTC 19 Jul 2018

KAKR 191254Z AUTO 10003KT 10SM CLR 22/13 A3012 RMK AO2 SLP194 T02170128
KAKR 191154Z AUTO 00000KT 10SM CLR 19/14 A3012 RMK AO2 SLP191 T01890139 10189 20133 53007
KAKR 191054Z AUTO 00000KT 10SM CLR 14/12 A3011 RMK AO2 SLP191 T01440122
KAKR 190954Z AUTO 08003KT 10SM CLR 14/11 A3010 RMK AO2 SLP186 T01390111
KAKR 190854Z AUTO 00000KT 10SM CLR 14/12 A3010 RMK AO2 SLP185 T01440117 51002
KAKR 190754Z AUTO 00000KT 10SM CLR 15/12 A3009 RMK AO2 SLP184 T01500117
KAKR 190654Z AUTO 00000KT 10SM CLR 16/12 A3010 RMK AO2 SLP185 T01610117
KAKR 190554Z AUTO 00000KT 10SM CLR 16/12 A3009 RMK AO2 SLP183 T01560117 10250 20156 50001
KAKR 190454Z AUTO 00000KT 10SM CLR 17/11 A3009 RMK AO2 SLP184 T01720111 402830156
KAKR 190354Z AUTO 00000KT 10SM CLR 19/11 A3009 RMK AO2 SLP183 T01890111
KAKR 190254Z AUTO 03004KT 10SM CLR 20/11 A3009 RMK AO2 SLP181 T02000106 53012
KAKR 190154Z AUTO 02005KT 10SM CLR 21/11 A3007 RMK AO2 SLP176 T02110111
KAKR 190054Z AUTO 36008KT 10SM CLR 23/12 A3006 RMK AO2 SLP170 T02280122
KAKR 182354Z AUTO 36008KT 10SM SCT050 25/14 A3005 RMK AO2 SLP168 T02500139 10283 20250 55001
KAKR 182254Z AUTO 04005KT 10SM OVC050 26/13 A3004 RMK AO2 SLP168 T02560133
KAKR 182154Z AUTO 30005KT 10SM FEW060 26/12 A3005 RMK AO2 SLP168 T02610122
KAKR 182054Z AUTO 01006KT 10SM SCT060 26/12 A3005 RMK AO2 SLP171 T02610117 58012
KAKR 181954Z AUTO VRB04KT 10SM CLR 28/12 A3006 RMK AO2 SLP172 T02780117
KAKR 181854Z AUTO 04005KT 10SM FEW055 27/11 A3008 RMK AO2 SLP178 T02720111
KAKR 181754Z AUTO 35007KT 10SM FEW055 27/12 A3009 RMK AO2 SLP181 T02670117 10267 20200 58006
KAKR 181654Z AUTO 36009KT 10SM BKN050 24/11 A3010 RMK AO2 SLP185 T02440111
KAKR 181554Z AUTO 02008KT 10SM BKN049 24/12 A3010 RMK AO2 SLP187 T02440117
KAKR 181454Z AUTO 35009KT 10SM FEW040 SCT050 24/13 A3011 RMK AO2 SLP188 T02390128 51005
KAKR 181354Z AUTO 03007KT 350V060 10SM SCT036 SCT044 23/13 A3010 RMK AO2 SLP186 T02330133
KAKR 181254Z AUTO 01007KT 10SM CLR 22/13 A3010 RMK AO2 SLP185 T02220133
KAKR 181154Z AUTO 36005KT 10SM CLR 20/15 A3009 RMK AO2 SLP182 T02000150 10200 20156 52012
KAKR 181054Z AUTO 00000KT 10SM CLR 17/14 A3008 RMK AO2 SLP180 T01670139
KAKR 180954Z AUTO 00000KT 10SM CLR 17/13 A3006 RMK AO2 SLP173 T01670133
KAKR 180854Z AUTO 00000KT 10SM CLR 16/14 A3006 RMK AO2 SLP170 T01610139 53001
KAKR 180754Z AUTO 00000KT 10SM CLR 17/14 A3005 RMK AO2 SLP168 T01720139
KAKR 180654Z AUTO 00000KT 10SM FEW065 18/14 A3005 RMK AO2 SLP169 T01830139
KAKR 180554Z AUTO 00000KT 10SM BKN070 18/14 A3005 RMK AO2 SLP168 T01830144 10256 20183 51005
KAKR 180454Z AUTO 00000KT 10SM SCT070 19/14 A3005 RMK AO2 SLP167 T01940144 403000189
KAKR 180354Z AUTO 00000KT 10SM CLR 20/14 A3005 RMK AO2 SLP166 T02000144
KAKR 180254Z AUTO 05005KT 10SM CLR 21/14 A3004 RMK AO2 SLP162 T02060139 53016
KAKR 180154Z AUTO 05007KT 10SM CLR 22/14 A3002 RMK AO2 SLP157 T02220139